createdAt,value
2017-06-26T00:00:19.829Z,84.90
2017-06-26T00:02:48.218Z,85.10
2017-06-26T00:05:16.605Z,85.50
2017-06-26T00:07:44.979Z,85.60
2017-06-26T00:10:13.401Z,85.90
2017-06-26T00:12:42.557Z,86.40
2017-06-26T00:15:10.943Z,86.30
2017-06-26T00:17:39.326Z,86.60
2017-06-26T00:20:07.705Z,87.20
2017-06-26T00:22:36.111Z,88.10
2017-06-26T00:25:05.264Z,89.30
2017-06-26T00:27:33.727Z,89.20
2017-06-26T00:30:02.118Z,89.40
2017-06-26T00:32:30.505Z,89.30
2017-06-26T00:34:58.925Z,89.70
2017-06-26T00:37:28.104Z,90.10
2017-06-26T00:39:56.509Z,90.10
2017-06-26T00:42:24.905Z,90.30
2017-06-26T00:44:53.293Z,90.40
2017-06-26T00:47:21.711Z,90.50
2017-06-26T00:49:50.084Z,90.50
2017-06-26T00:52:18.459Z,90.50
2017-06-26T00:54:46.849Z,90.50
2017-06-26T00:57:15.222Z,90.30
2017-06-26T00:59:43.632Z,90.40
2017-06-26T01:02:12.780Z,90.50
2017-06-26T01:04:41.169Z,90.50
2017-06-26T01:07:09.577Z,90.50
2017-06-26T01:09:38.723Z,90.80
2017-06-26T01:12:07.156Z,90.70
2017-06-26T01:14:36.316Z,90.80
2017-06-26T01:17:04.692Z,90.80
2017-06-26T01:19:33.098Z,90.90
2017-06-26T01:22:01.468Z,91.00
2017-06-26T01:24:29.874Z,91.00
2017-06-26T01:26:58.261Z,90.90
2017-06-26T01:29:26.645Z,90.90
2017-06-26T01:31:55.041Z,91.00
2017-06-26T01:34:23.436Z,90.90
2017-06-26T01:36:51.857Z,90.80
2017-06-26T01:39:21.017Z,91.00
2017-06-26T01:41:49.405Z,91.00
2017-06-26T01:44:17.794Z,90.90
2017-06-26T01:46:46.169Z,90.80
2017-06-26T01:49:14.560Z,90.90
2017-06-26T01:51:43.722Z,91.10
2017-06-26T01:54:12.121Z,91.10
2017-06-26T01:56:40.532Z,91.20
2017-06-26T01:59:08.925Z,91.30
2017-06-26T02:01:37.329Z,91.50
2017-06-26T02:04:05.707Z,91.70
2017-06-26T02:06:34.093Z,91.60
2017-06-26T02:09:02.485Z,91.60
2017-06-26T02:11:30.871Z,91.60
2017-06-26T02:13:59.273Z,91.60
2017-06-26T02:16:27.677Z,91.80
2017-06-26T02:18:56.066Z,91.80
2017-06-26T02:21:24.478Z,91.70
2017-06-26T02:23:52.870Z,91.70
2017-06-26T02:26:22.045Z,91.50
2017-06-26T02:28:50.423Z,91.50
2017-06-26T02:31:18.825Z,91.40
2017-06-26T02:33:48.009Z,91.50
2017-06-26T02:36:16.398Z,91.50
2017-06-26T02:38:45.567Z,91.60
2017-06-26T02:41:13.957Z,91.50
2017-06-26T02:43:42.332Z,91.70
2017-06-26T02:46:10.722Z,91.90
2017-06-26T02:48:39.096Z,91.90
2017-06-26T02:51:07.499Z,91.90
2017-06-26T02:53:36.654Z,92.10
2017-06-26T02:56:05.047Z,92.10
2017-06-26T02:58:33.447Z,92.20
2017-06-26T03:01:02.604Z,92.20
2017-06-26T03:03:31.002Z,92.20
2017-06-26T03:05:59.396Z,92.20
2017-06-26T03:08:28.550Z,92.90
2017-06-26T03:10:56.950Z,92.90
2017-06-26T03:13:25.344Z,93.10
2017-06-26T03:15:54.515Z,93.10
2017-06-26T03:18:22.922Z,93.00
2017-06-26T03:20:52.088Z,93.10
2017-06-26T03:23:20.518Z,93.10
2017-06-26T03:25:48.912Z,92.80
2017-06-26T03:28:17.393Z,92.70
2017-06-26T03:30:45.812Z,92.70
2017-06-26T03:33:14.231Z,92.50
2017-06-26T03:35:42.620Z,92.70
2017-06-26T03:38:11.023Z,92.60
2017-06-26T03:40:39.431Z,92.60
2017-06-26T03:43:07.822Z,92.50
2017-06-26T03:45:36.987Z,92.60
2017-06-26T03:48:05.393Z,92.50
2017-06-26T03:50:34.560Z,93.20
2017-06-26T03:53:02.967Z,92.80
2017-06-26T03:55:31.352Z,93.10
2017-06-26T03:58:00.509Z,93.00
2017-06-26T04:00:28.938Z,93.00
2017-06-26T04:02:58.112Z,93.30
2017-06-26T04:05:27.309Z,93.50
2017-06-26T04:07:56.493Z,93.40
2017-06-26T04:10:24.884Z,93.50
2017-06-26T04:12:53.284Z,93.60
2017-06-26T04:15:21.677Z,93.90
2017-06-26T04:17:50.084Z,93.80
2017-06-26T04:20:18.487Z,93.70
2017-06-26T04:22:46.876Z,93.70
2017-06-26T04:25:15.275Z,93.80
2017-06-26T04:27:43.671Z,93.80
2017-06-26T04:30:12.072Z,93.80
2017-06-26T04:32:40.462Z,93.70
2017-06-26T04:35:08.843Z,93.90
2017-06-26T04:37:37.248Z,94.00
2017-06-26T04:40:05.639Z,94.00
2017-06-26T04:42:34.830Z,94.00
2017-06-26T04:45:03.990Z,94.00
2017-06-26T04:47:32.450Z,94.00
2017-06-26T04:50:00.845Z,93.90
2017-06-26T04:52:29.248Z,94.10
2017-06-26T04:54:57.653Z,94.40
2017-06-26T04:57:26.073Z,94.20
2017-06-26T04:59:54.461Z,94.10
2017-06-26T05:02:22.854Z,94.20
2017-06-26T05:04:51.253Z,94.20
2017-06-26T05:07:20.456Z,94.20
2017-06-26T05:09:49.609Z,94.20
2017-06-26T05:12:18.001Z,94.20
2017-06-26T05:14:46.403Z,94.40
2017-06-26T05:17:15.557Z,94.50
2017-06-26T05:19:43.976Z,94.50
2017-06-26T05:22:12.383Z,94.40
2017-06-26T05:24:41.756Z,94.00
2017-06-26T05:27:10.212Z,94.00
2017-06-26T05:29:38.602Z,93.90
2017-06-26T05:32:07.036Z,93.60
2017-06-26T05:34:35.434Z,93.90
2017-06-26T05:37:03.828Z,94.00
2017-06-26T05:39:32.232Z,94.00
2017-06-26T05:42:01.405Z,94.40
2017-06-26T05:44:29.832Z,94.40
2017-06-26T05:46:58.212Z,94.50
2017-06-26T05:49:26.609Z,94.80
2017-06-26T05:51:55.021Z,94.80
2017-06-26T05:54:23.417Z,94.40
2017-06-26T05:56:51.992Z,94.00
2017-06-26T05:59:20.381Z,94.10
2017-06-26T06:01:49.536Z,94.00
2017-06-26T06:04:17.971Z,94.30
2017-06-26T06:06:46.359Z,94.80
2017-06-26T06:09:14.781Z,94.50
2017-06-26T06:11:43.168Z,94.70
2017-06-26T06:14:11.557Z,95.10
2017-06-26T06:16:39.961Z,95.10
2017-06-26T06:19:09.119Z,94.90
2017-06-26T06:21:37.545Z,94.90
2017-06-26T06:24:05.925Z,94.80
2017-06-26T06:26:34.294Z,94.80
2017-06-26T06:29:02.698Z,94.70
2017-06-26T06:31:31.125Z,94.30
2017-06-26T06:33:59.527Z,94.10
2017-06-26T06:36:28.725Z,93.80
2017-06-26T06:38:57.880Z,94.30
2017-06-26T06:41:26.090Z,94.30
2017-06-26T06:43:55.245Z,93.80
2017-06-26T06:46:23.648Z,93.90
2017-06-26T06:48:52.062Z,94.00
2017-06-26T06:51:20.446Z,93.40
2017-06-26T06:53:48.861Z,94.00
2017-06-26T06:56:17.265Z,93.60
2017-06-26T06:58:46.464Z,93.80
2017-06-26T07:01:14.849Z,93.50
2017-06-26T07:03:43.257Z,93.80
2017-06-26T07:06:11.661Z,93.80
2017-06-26T07:08:40.052Z,93.60
2017-06-26T07:11:08.457Z,92.70
2017-06-26T07:13:36.860Z,91.80
2017-06-26T07:16:05.251Z,91.30
2017-06-26T07:18:33.657Z,91.30
2017-06-26T07:21:02.043Z,91.70
2017-06-26T07:23:30.479Z,91.90
2017-06-26T07:25:58.867Z,91.60
2017-06-26T07:28:27.265Z,91.80
2017-06-26T07:30:55.674Z,91.50
2017-06-26T07:33:24.050Z,91.40
2017-06-26T07:35:52.457Z,91.10
2017-06-26T07:38:21.623Z,91.30
2017-06-26T07:40:50.011Z,91.30
2017-06-26T07:43:18.400Z,91.20
2017-06-26T07:45:47.556Z,90.30
2017-06-26T07:48:15.958Z,90.30
2017-06-26T07:50:44.347Z,91.10
2017-06-26T07:53:12.726Z,91.50
2017-06-26T07:55:41.156Z,91.40
2017-06-26T07:58:09.561Z,91.70
2017-06-26T08:00:37.965Z,90.80
2017-06-26T08:03:07.128Z,90.80
2017-06-26T08:05:35.524Z,90.80
2017-06-26T08:08:03.930Z,89.40
2017-06-26T08:10:32.330Z,87.70
2017-06-26T08:13:00.744Z,88.00
2017-06-26T08:15:29.141Z,85.10
2017-06-26T08:17:57.529Z,83.80
2017-06-26T08:20:25.949Z,86.20
2017-06-26T08:22:54.337Z,84.00
2017-06-26T08:25:22.741Z,85.70
2017-06-26T08:27:51.139Z,85.10
2017-06-26T08:30:19.532Z,88.40
2017-06-26T08:32:47.991Z,88.60
2017-06-26T08:35:16.419Z,89.40
2017-06-26T08:37:44.855Z,90.10
2017-06-26T08:40:13.242Z,90.70
2017-06-26T08:42:42.398Z,90.10
2017-06-26T08:45:10.810Z,90.00
2017-06-26T08:47:39.969Z,89.90
2017-06-26T08:50:08.388Z,89.90
2017-06-26T08:52:36.764Z,88.60
2017-06-26T08:55:05.152Z,88.20
2017-06-26T08:57:33.557Z,88.40
2017-06-26T09:00:01.961Z,89.50
2017-06-26T09:02:30.618Z,89.70
2017-06-26T09:04:59.009Z,89.60
2017-06-26T09:07:27.422Z,89.20
2017-06-26T09:09:55.849Z,89.60
2017-06-26T09:12:24.235Z,89.70
2017-06-26T09:14:52.654Z,88.90
2017-06-26T09:17:21.043Z,87.40
2017-06-26T09:19:49.433Z,87.20
2017-06-26T09:22:17.855Z,83.30
2017-06-26T09:24:46.243Z,82.70
2017-06-26T09:27:14.660Z,81.10
2017-06-26T09:29:43.049Z,81.40
2017-06-26T09:32:11.471Z,80.50
2017-06-26T09:34:39.897Z,79.20
2017-06-26T09:37:08.294Z,79.30
2017-06-26T09:39:37.490Z,78.50
2017-06-26T09:42:06.655Z,78.00
2017-06-26T09:44:35.082Z,77.90
2017-06-26T09:47:03.501Z,77.30
2017-06-26T09:49:31.879Z,77.90
2017-06-26T09:52:00.279Z,78.80
2017-06-26T09:54:28.687Z,79.50
2017-06-26T09:56:57.076Z,80.90
2017-06-26T09:59:25.448Z,80.40
2017-06-26T10:01:53.666Z,77.50
2017-06-26T10:04:22.063Z,75.40
2017-06-26T10:06:50.475Z,78.00
2017-06-26T10:09:18.876Z,78.80
2017-06-26T10:11:47.264Z,78.80
2017-06-26T10:14:15.657Z,76.60
2017-06-26T10:16:44.072Z,77.30
2017-06-26T10:19:13.272Z,77.30
2017-06-26T10:21:42.429Z,75.60
2017-06-26T10:24:10.830Z,75.60
2017-06-26T10:26:39.221Z,76.00
2017-06-26T10:29:07.623Z,77.90
2017-06-26T10:31:36.026Z,77.50
2017-06-26T10:34:04.416Z,77.80
2017-06-26T10:36:32.808Z,78.10
2017-06-26T10:39:01.229Z,80.00
2017-06-26T10:41:29.612Z,78.20
2017-06-26T10:43:58.021Z,79.00
2017-06-26T10:46:26.441Z,78.50
2017-06-26T10:48:54.843Z,78.70
2017-06-26T10:51:23.233Z,78.80
2017-06-26T10:53:51.636Z,79.40
2017-06-26T10:56:20.027Z,78.40
2017-06-26T10:58:48.413Z,79.70
2017-06-26T11:01:16.820Z,79.40
2017-06-26T11:03:45.974Z,80.30
2017-06-26T11:06:14.403Z,79.70
2017-06-26T11:08:43.576Z,80.50
2017-06-26T11:11:11.951Z,80.50
2017-06-26T11:13:40.340Z,79.70
2017-06-26T11:16:08.752Z,80.60
2017-06-26T11:18:37.161Z,81.70
2017-06-26T11:21:06.745Z,82.30
2017-06-26T11:23:35.154Z,81.80
2017-06-26T11:26:03.544Z,81.70
2017-06-26T11:28:31.935Z,82.70
2017-06-26T11:31:00.347Z,83.10
2017-06-26T11:33:28.758Z,81.80
2017-06-26T11:35:57.145Z,81.40
2017-06-26T11:38:25.564Z,82.00
2017-06-26T11:40:54.733Z,82.30
2017-06-26T11:43:23.147Z,82.10
2017-06-26T11:45:51.566Z,81.20
2017-06-26T11:48:19.970Z,83.20
2017-06-26T11:50:48.367Z,81.40
2017-06-26T11:53:16.897Z,80.30
2017-06-26T11:55:45.279Z,80.40
2017-06-26T11:58:13.679Z,80.50
2017-06-26T12:00:42.100Z,81.50
2017-06-26T12:03:11.253Z,80.00
2017-06-26T12:05:39.644Z,80.00
2017-06-26T12:08:08.047Z,81.20
2017-06-26T12:10:37.219Z,78.90
2017-06-26T12:13:05.601Z,78.80
2017-06-26T12:15:34.012Z,77.70
2017-06-26T12:18:02.416Z,75.70
2017-06-26T12:20:30.805Z,75.80
2017-06-26T12:22:59.224Z,75.90
2017-06-26T12:25:27.616Z,74.40
2017-06-26T12:27:56.784Z,70.70
2017-06-26T12:30:25.204Z,70.70
2017-06-26T12:32:53.655Z,68.60
2017-06-26T12:35:22.074Z,69.30
2017-06-26T12:37:50.497Z,68.00
2017-06-26T12:40:18.881Z,71.20
2017-06-26T12:42:47.271Z,68.40
2017-06-26T12:45:16.712Z,66.30
2017-06-26T12:47:45.955Z,64.50
2017-06-26T12:50:14.346Z,64.40
2017-06-26T12:52:42.748Z,67.50
2017-06-26T12:55:11.905Z,70.30
2017-06-26T12:57:40.319Z,70.40
2017-06-26T13:00:08.758Z,69.50
2017-06-26T13:02:37.146Z,68.30
2017-06-26T13:05:05.535Z,68.70
2017-06-26T13:07:33.984Z,68.70
2017-06-26T13:10:02.374Z,68.60
2017-06-26T13:12:30.828Z,66.90
2017-06-26T13:14:59.228Z,68.40
2017-06-26T13:17:27.658Z,68.60
2017-06-26T13:19:56.053Z,66.10
2017-06-26T13:22:24.472Z,66.50
2017-06-26T13:24:52.886Z,66.00
2017-06-26T13:27:21.291Z,66.80
2017-06-26T13:29:49.709Z,67.00
2017-06-26T13:32:18.107Z,65.70
2017-06-26T13:34:46.489Z,64.10
2017-06-26T13:37:14.912Z,63.20
2017-06-26T13:39:43.317Z,65.30
2017-06-26T13:42:11.707Z,61.40
2017-06-26T13:44:40.121Z,64.10
2017-06-26T13:47:08.502Z,63.50
2017-06-26T13:49:36.890Z,61.50
2017-06-26T13:52:05.777Z,61.50
2017-06-26T13:54:34.287Z,61.40
2017-06-26T13:57:02.751Z,60.80
2017-06-26T13:59:31.177Z,62.40
2017-06-26T14:01:59.557Z,61.20
2017-06-26T14:04:27.957Z,62.30
2017-06-26T14:06:56.381Z,63.40
2017-06-26T14:09:24.770Z,63.80
2017-06-26T14:11:53.160Z,64.60
2017-06-26T14:14:21.610Z,61.70
2017-06-26T14:16:50.014Z,63.90
2017-06-26T14:19:18.390Z,61.10
2017-06-26T14:21:46.809Z,61.30
2017-06-26T14:24:15.963Z,59.50
2017-06-26T14:26:44.350Z,59.50
2017-06-26T14:29:12.766Z,62.00
2017-06-26T14:31:41.161Z,62.20
2017-06-26T14:34:09.549Z,59.70
2017-06-26T14:36:37.972Z,60.70
2017-06-26T14:39:06.354Z,60.80
2017-06-26T14:41:35.513Z,61.70
2017-06-26T14:44:03.916Z,61.30
2017-06-26T14:46:32.325Z,62.60
2017-06-26T14:49:00.711Z,61.20
2017-06-26T14:51:29.125Z,60.70
2017-06-26T14:53:57.504Z,60.50
2017-06-26T14:56:25.874Z,59.00
2017-06-26T14:58:54.283Z,59.60
2017-06-26T15:01:22.673Z,59.40
2017-06-26T15:03:51.057Z,60.60
2017-06-26T15:06:20.232Z,61.40
2017-06-26T15:08:48.624Z,61.30
2017-06-26T15:11:16.997Z,59.40
2017-06-26T15:13:45.388Z,59.30
2017-06-26T15:16:14.541Z,58.30
2017-06-26T15:18:42.944Z,58.20
2017-06-26T15:21:11.359Z,59.60
2017-06-26T15:23:40.573Z,57.60
2017-06-26T15:26:08.967Z,57.60
2017-06-26T15:28:37.374Z,58.20
2017-06-26T15:31:05.762Z,58.20
2017-06-26T15:33:34.152Z,59.20
2017-06-26T15:36:03.332Z,61.50
2017-06-26T15:38:31.769Z,61.40
2017-06-26T15:41:00.145Z,62.20
2017-06-26T15:43:28.553Z,59.20
2017-06-26T15:45:56.953Z,59.10
2017-06-26T15:48:25.358Z,59.10
2017-06-26T15:50:54.556Z,59.70
2017-06-26T15:53:22.941Z,59.70
2017-06-26T15:55:51.321Z,59.50
2017-06-26T15:58:19.705Z,58.80
2017-06-26T16:00:48.089Z,59.10
2017-06-26T16:03:16.477Z,58.20
2017-06-26T16:05:44.894Z,58.60
2017-06-26T16:08:13.285Z,59.00
2017-06-26T16:10:41.691Z,58.40
2017-06-26T16:13:10.116Z,57.70
2017-06-26T16:15:38.565Z,58.30
2017-06-26T16:18:06.962Z,57.30
2017-06-26T16:20:35.367Z,57.90
2017-06-26T16:23:03.855Z,57.30
2017-06-26T16:25:33.028Z,57.80
2017-06-26T16:28:01.447Z,57.80
2017-06-26T16:30:30.612Z,58.60
2017-06-26T16:32:59.008Z,58.50
2017-06-26T16:35:28.176Z,58.60
2017-06-26T16:37:56.569Z,58.60
2017-06-26T16:40:25.032Z,58.50
2017-06-26T16:42:53.443Z,57.50
2017-06-26T16:45:22.613Z,57.50
2017-06-26T16:47:51.001Z,57.50
2017-06-26T16:50:19.423Z,58.10
2017-06-26T16:52:47.825Z,58.00
2017-06-26T16:55:16.206Z,58.70
2017-06-26T16:57:44.609Z,58.10
2017-06-26T17:00:12.994Z,58.20
2017-06-26T17:02:41.416Z,58.20
2017-06-26T17:05:09.822Z,57.70
2017-06-26T17:07:38.210Z,58.00
2017-06-26T17:10:06.600Z,58.20
2017-06-26T17:12:35.038Z,58.20
2017-06-26T17:15:03.411Z,58.20
2017-06-26T17:17:31.784Z,57.80
2017-06-26T17:20:01.173Z,57.90
2017-06-26T17:22:29.658Z,57.80
2017-06-26T17:24:58.030Z,58.00
2017-06-26T17:27:26.452Z,58.50
2017-06-26T17:29:54.840Z,58.60
2017-06-26T17:32:23.246Z,58.60
2017-06-26T17:34:51.668Z,57.90
2017-06-26T17:37:20.048Z,57.70
2017-06-26T17:39:48.442Z,57.80
2017-06-26T17:42:16.886Z,58.70
2017-06-26T17:44:45.298Z,58.30
2017-06-26T17:47:13.744Z,58.00
2017-06-26T17:49:42.159Z,59.20
2017-06-26T17:52:10.539Z,59.50
2017-06-26T17:54:38.928Z,59.50
2017-06-26T17:57:07.342Z,58.60
2017-06-26T17:59:35.730Z,57.80
2017-06-26T18:02:04.127Z,58.40
2017-06-26T18:04:32.539Z,58.20
2017-06-26T18:07:00.937Z,59.40
2017-06-26T18:09:29.372Z,59.20
2017-06-26T18:11:57.804Z,59.50
2017-06-26T18:14:26.195Z,59.80
2017-06-26T18:16:54.607Z,60.00
2017-06-26T18:19:23.025Z,59.00
2017-06-26T18:21:51.421Z,59.50
2017-06-26T18:24:19.828Z,59.00
2017-06-26T18:26:48.238Z,59.50
2017-06-26T18:29:16.618Z,60.00
2017-06-26T18:31:45.002Z,59.40
2017-06-26T18:34:13.426Z,59.20
2017-06-26T18:36:41.847Z,59.50
2017-06-26T18:39:10.233Z,59.00
2017-06-26T18:41:38.653Z,58.60
2017-06-26T18:44:07.795Z,58.70
2017-06-26T18:46:36.168Z,58.60
2017-06-26T18:49:04.581Z,59.00
2017-06-26T18:51:32.985Z,59.30
2017-06-26T18:54:01.383Z,59.60
2017-06-26T18:56:29.813Z,59.50
2017-06-26T18:58:58.198Z,59.00
2017-06-26T19:01:27.150Z,59.70
2017-06-26T19:03:55.582Z,60.10
2017-06-26T19:06:24.286Z,60.00
2017-06-26T19:08:52.693Z,60.00
2017-06-26T19:11:21.114Z,59.50
2017-06-26T19:13:49.510Z,60.70
2017-06-26T19:16:19.557Z,60.40
2017-06-26T19:18:48.228Z,60.50
2017-06-26T19:21:16.616Z,60.30
2017-06-26T19:23:45.064Z,60.10
2017-06-26T19:26:13.501Z,60.00
2017-06-26T19:28:41.898Z,60.00
2017-06-26T19:31:10.293Z,60.70
2017-06-26T19:33:38.827Z,60.40
2017-06-26T19:36:07.226Z,60.80
2017-06-26T19:38:35.612Z,60.70
2017-06-26T19:41:04.061Z,60.80
2017-06-26T19:43:32.445Z,61.70
2017-06-26T19:46:00.825Z,62.10
2017-06-26T19:48:29.468Z,62.10
2017-06-26T19:50:58.625Z,62.70
2017-06-26T19:53:27.010Z,62.70
2017-06-26T19:55:55.421Z,62.70
2017-06-26T19:58:23.867Z,62.70
2017-06-26T20:00:52.250Z,63.30
2017-06-26T20:03:20.660Z,63.60
2017-06-26T20:05:49.048Z,63.90
2017-06-26T20:08:17.425Z,63.80
2017-06-26T20:10:45.891Z,63.40
2017-06-26T20:13:15.140Z,63.60
2017-06-26T20:15:43.538Z,63.60
2017-06-26T20:18:11.954Z,63.20
2017-06-26T20:20:40.338Z,63.70
2017-06-26T20:23:08.733Z,63.70
2017-06-26T20:25:37.167Z,63.80
2017-06-26T20:28:05.566Z,63.90
2017-06-26T20:30:33.973Z,64.00
2017-06-26T20:33:02.393Z,64.20
2017-06-26T20:35:30.778Z,64.60
2017-06-26T20:37:59.161Z,64.00
2017-06-26T20:40:27.579Z,64.00
2017-06-26T20:42:56.073Z,64.10
2017-06-26T20:45:24.464Z,63.80
2017-06-26T20:47:52.894Z,63.90
2017-06-26T20:50:22.049Z,64.60
2017-06-26T20:52:50.451Z,64.10
2017-06-26T20:55:18.886Z,65.10
2017-06-26T20:57:47.275Z,64.70
2017-06-26T21:00:15.645Z,64.90
2017-06-26T21:02:44.033Z,64.70
2017-06-26T21:05:12.578Z,64.70
2017-06-26T21:07:41.733Z,65.20
2017-06-26T21:10:10.153Z,65.20
2017-06-26T21:12:39.366Z,65.20
2017-06-26T21:15:07.824Z,65.20
2017-06-26T21:17:37.047Z,65.80
2017-06-26T21:20:05.434Z,65.70
2017-06-26T21:22:33.816Z,65.70
2017-06-26T21:25:02.214Z,66.10
2017-06-26T21:27:30.610Z,66.50
2017-06-26T21:29:59.030Z,66.10
2017-06-26T21:32:27.441Z,66.20
2017-06-26T21:34:55.839Z,66.40
2017-06-26T21:37:24.253Z,66.70
2017-06-26T21:39:53.436Z,66.90
2017-06-26T21:42:22.617Z,65.80
2017-06-26T21:44:50.994Z,65.70
2017-06-26T21:47:19.457Z,65.80
2017-06-26T21:49:47.849Z,66.30
2017-06-26T21:52:16.244Z,66.30
2017-06-26T21:54:44.671Z,66.40
2017-06-26T21:57:13.070Z,66.80
2017-06-26T21:59:41.474Z,66.20
2017-06-26T22:02:09.878Z,66.40
2017-06-26T22:04:38.272Z,66.50
2017-06-26T22:07:06.650Z,66.70
2017-06-26T22:09:35.051Z,66.80
2017-06-26T22:12:03.458Z,67.30
2017-06-26T22:14:31.845Z,67.10
2017-06-26T22:17:00.250Z,67.10
2017-06-26T22:19:28.634Z,66.90
2017-06-26T22:21:57.089Z,67.50
2017-06-26T22:24:25.492Z,66.50
2017-06-26T22:26:53.900Z,66.80
2017-06-26T22:29:22.297Z,66.10
2017-06-26T22:31:50.709Z,65.80
2017-06-26T22:34:19.863Z,66.30
2017-06-26T22:36:48.252Z,66.30
2017-06-26T22:39:16.700Z,66.30
2017-06-26T22:41:45.084Z,66.40
2017-06-26T22:44:14.231Z,66.20
2017-06-26T22:46:42.633Z,66.40
2017-06-26T22:49:11.024Z,66.40
2017-06-26T22:51:39.426Z,66.50
2017-06-26T22:54:07.901Z,66.20
2017-06-26T22:56:37.175Z,66.30
2017-06-26T22:59:05.644Z,66.40
2017-06-26T23:01:34.133Z,66.50
2017-06-26T23:04:02.588Z,66.80
2017-06-26T23:06:30.977Z,66.90
2017-06-26T23:09:00.150Z,67.10
2017-06-26T23:11:28.539Z,67.10
2017-06-26T23:13:57.690Z,67.20
2017-06-26T23:16:26.111Z,67.20
2017-06-26T23:18:55.247Z,68.50
2017-06-26T23:21:23.640Z,68.00
2017-06-26T23:23:52.055Z,68.30
2017-06-26T23:26:20.432Z,68.50
2017-06-26T23:28:48.820Z,68.70
2017-06-26T23:31:18.010Z,68.80
2017-06-26T23:33:46.395Z,69.30
2017-06-26T23:38:50.328Z,68.90
2017-06-26T23:41:19.561Z,69.80
2017-06-26T23:43:47.944Z,69.60
2017-06-26T23:46:16.353Z,68.20
2017-06-26T23:48:44.743Z,68.80
2017-06-26T23:51:13.133Z,68.00
2017-06-26T23:53:42.302Z,68.80
2017-06-26T23:56:10.669Z,69.50
2017-06-26T23:58:39.048Z,68.80
